Portada
METAR-TAF:

METAR-TAF

Aeroports :

Rasht, Iran

latitud: 37-12N, longitud: 049-38E, altitud: -7 m

Observació

L'informe es va fer fa 10 hores i 24 minuts, a les 13:00 UTC
Vent calma
Temperatura 16°C
Humitat 82%
Pressió 1010 hPa
Visibilitat: 6000 m
Escasses núvols a una alçada de 1500 ft, Cumulonimbus.
Cel ennuvolat a una alçada de 2000 ft
Cel cobert a una alçada de 9000 ft

METAR: OIGG 011300Z 00000KT 6000 FEW015CB BKN020 OVC090 16/13 Q1010

Hora: 03:54 (23:24 UTC)


TAF: manca

Observacions i pronòstics meteorològics de més de 4000 aeroports (METAR i TAF).

Les estacions disponibles són els punts grocs i vermells al mapa.

Posi el ratolí al punt desitjat per veure el nom de l'estació.

Feu clic per veure les observacions i els pronòstics meteorològics.

Per canviar el mapa: feu clic els botons verds amb una creu de color negre per apropar; al botó verd amb un guió per allunyar la imatge; o en les fletxes verdes per a mapes adjacents.


METAR-TAF: